Time;durP1;ratioP1;P1;durP2;ratioP2;P2;SDS_P1;SDS_P2;PMS_P1;PMS_P2;Temp;Humidity;BMP_temperature;BMP_pressure;BME280_temperature;BME280_humidity;BME280_pressure;Samples;Min_cycle;Max_cycle;Signal;HPM_P1;HPM_P2
2022/06/06 00:00:13;;;;;;;57.60;37.05;;;;;;;19.55;65.02;100648.34;685329;28;1381;-78
2022/06/06 00:00:33;;;;;;;57.42;37.42;;;;;;;19.60;64.82;100643.88;685285;28;1230;-78
2022/06/06 00:00:54;;;;;;;58.23;37.43;;;;;;;19.59;64.98;100639.47;685392;28;875;-78
2022/06/06 00:01:20;;;;;;;61.95;38.97;;;;;;;19.63;64.98;100657.09;682984;28;1166;-78
2022/06/06 00:01:42;;;;;;;63.05;39.03;;;;;;;19.65;64.95;100664.97;682718;29;1119;-79
2022/06/06 00:02:04;;;;;;;66.63;40.50;;;;;;;19.57;64.97;100657.16;685266;28;1240;-78
2022/06/06 00:02:25;;;;;;;64.30;39.20;;;;;;;19.66;65.20;100654.38;685869;28;1229;-78
2022/06/06 00:02:49;;;;;;;61.10;39.35;;;;;;;19.58;64.93;100643.91;682628;29;1385;-79
2022/06/06 00:03:10;;;;;;;60.22;39.20;;;;;;;19.55;65.09;100643.06;683142;28;1634;-78
2022/06/06 00:03:31;;;;;;;62.78;39.83;;;;;;;19.58;65.24;100651.84;687935;28;1253;-78
2022/06/06 00:03:52;;;;;;;62.10;39.60;;;;;;;19.61;64.98;100650.91;685462;28;1137;-78
2022/06/06 00:04:13;;;;;;;62.40;38.97;;;;;;;19.60;65.13;100649.16;682720;28;1278;-78
2022/06/06 00:04:35;;;;;;;60.47;38.70;;;;;;;19.63;65.18;100641.19;685327;28;1493;-77
2022/06/06 00:04:57;;;;;;;60.78;38.58;;;;;;;19.59;65.12;100639.47;685398;28;1250;-78
2022/06/06 00:05:18;;;;;;;63.58;40.03;;;;;;;19.58;65.18;100649.19;685298;28;1056;-78
2022/06/06 00:05:44;;;;;;;63.63;39.45;;;;;;;19.61;65.32;100642.97;685023;28;1498;-78
2022/06/06 00:06:09;;;;;;;64.97;40.38;;;;;;;19.57;65.25;100647.44;679970;28;1151;-78
2022/06/06 00:06:30;;;;;;;63.10;40.40;;;;;;;19.67;65.23;100642.03;679683;29;1358;-77
2022/06/06 00:06:52;;;;;;;62.43;39.73;;;;;;;19.60;65.17;100649.16;677515;29;1246;-79
2022/06/06 00:07:13;;;;;;;63.53;40.92;;;;;;;19.63;65.10;100641.19;678464;29;1087;-78
2022/06/06 00:07:34;;;;;;;63.20;40.50;;;;;;;19.64;65.22;100644.72;682532;28;1988;-79
2022/06/06 00:07:54;;;;;;;62.35;40.33;;;;;;;19.64;65.20;100644.72;681826;28;1064;-78
2022/06/06 00:08:16;;;;;;;62.67;39.58;;;;;;;19.68;65.26;100647.28;682671;29;1151;-78
2022/06/06 00:08:38;;;;;;;61.47;39.50;;;;;;;19.70;64.88;100645.53;682680;28;933;-78
2022/06/06 00:08:59;;;;;;;61.42;39.95;;;;;;;19.73;65.16;100647.25;683320;28;1561;-78
2022/06/06 00:09:20;;;;;;;69.13;41.70;;;;;;;19.67;65.24;100632.31;681330;29;1529;-78
2022/06/06 00:09:41;;;;;;;71.57;42.83;;;;;;;19.73;65.16;100650.78;682191;29;820;-78
2022/06/06 00:10:03;;;;;;;70.75;43.03;;;;;;;19.69;65.05;100638.50;680110;29;1244;-78
2022/06/06 00:10:24;;;;;;;66.10;41.88;;;;;;;19.65;65.19;100636.75;682670;28;1082;-78
2022/06/06 00:10:46;;;;;;;64.25;41.42;;;;;;;19.69;65.21;100651.72;685389;28;1103;-78
2022/06/06 00:11:09;;;;;;;64.82;41.22;;;;;;;19.61;65.23;100632.38;682639;29;1402;-78
2022/06/06 00:11:34;;;;;;;65.40;40.25;;;;;;;19.71;65.11;100655.22;681801;29;1213;-78
2022/06/06 00:11:59;;;;;;;64.45;39.35;;;;;;;19.71;65.08;100651.69;679323;29;1281;-77
2022/06/06 00:12:20;;;;;;;67.63;40.03;;;;;;;19.70;65.28;100634.94;682958;28;1236;-78
2022/06/06 00:13:08;;;;;;;68.50;40.58;;;;;;;19.79;65.17;100646.31;684152;28;1029;-78
2022/06/06 00:13:29;;;;;;;63.97;39.53;;;;;;;19.72;65.28;100648.13;688046;28;1133;-79
2022/06/06 00:13:49;;;;;;;64.50;39.25;;;;;;;19.73;65.17;100641.94;687304;28;1449;-78
2022/06/06 00:14:12;;;;;;;63.00;39.40;;;;;;;19.71;65.29;100639.34;685288;28;1340;-79
2022/06/06 00:14:39;;;;;;;64.35;39.40;;;;;;;19.72;65.06;100634.91;684990;28;1088;-79
2022/06/06 00:14:59;;;;;;;66.90;40.65;;;;;;;19.77;65.15;100645.44;687356;28;1539;-78
2022/06/06 00:15:22;;;;;;;67.80;40.95;;;;;;;19.80;65.06;100650.69;683680;28;1115;-78
2022/06/06 00:15:42;;;;;;;63.47;40.38;;;;;;;19.78;65.03;100633.97;682802;28;835;-78
2022/06/06 00:16:03;;;;;;;63.40;40.83;;;;;;;19.83;65.05;100637.41;684314;28;1340;-78
2022/06/06 00:16:24;;;;;;;62.92;40.35;;;;;;;19.83;64.96;100635.66;685797;28;1177;-76
2022/06/06 00:16:45;;;;;;;66.50;41.03;;;;;;;19.93;65.02;100655.00;685415;28;1046;-78
2022/06/06 00:17:06;;;;;;;66.30;40.60;;;;;;;19.84;64.89;100633.88;687869;28;1135;-78
2022/06/06 00:17:27;;;;;;;67.00;40.25;;;;;;;19.90;64.53;100638.25;684646;28;1268;-78
2022/06/06 00:17:47;;;;;;;64.47;39.72;;;;;;;19.88;64.78;100635.63;685439;28;1248;-77
2022/06/06 00:18:08;;;;;;;64.57;39.38;;;;;;;19.86;64.76;100634.75;682544;28;1242;-77
2022/06/06 00:18:29;;;;;;;63.45;39.25;;;;;;;19.83;64.90;100632.13;682598;29;1807;-78
2022/06/06 00:18:50;;;;;;;63.90;39.17;;;;;;;19.76;65.11;100633.09;682657;29;1233;-78
2022/06/06 00:19:12;;;;;;;62.55;39.33;;;;;;;19.78;65.00;100639.25;684779;28;1124;-78
2022/06/06 00:19:32;;;;;;;60.53;38.58;;;;;;;19.72;65.07;100630.50;679527;28;1302;-78
2022/06/06 00:19:54;;;;;;;58.78;38.38;;;;;;;19.78;65.25;100640.13;682259;29;1389;-78
2022/06/06 00:20:16;;;;;;;58.08;37.90;;;;;;;19.78;65.18;100633.97;683481;28;1084;-78
2022/06/06 00:20:36;;;;;;;59.85;38.22;;;;;;;19.80;65.03;100637.47;684322;28;1480;-78
2022/06/06 00:20:57;;;;;;;60.20;38.53;;;;;;;19.79;65.23;100631.28;682092;29;1144;-78
2022/06/06 00:21:18;;;;;;;59.53;38.07;;;;;;;19.87;64.88;100644.44;684648;28;1252;-78
2022/06/06 00:21:40;;;;;;;59.85;38.47;;;;;;;19.80;65.17;100637.47;685299;28;1046;-77
2022/06/06 00:22:01;;;;;;;60.20;38.03;;;;;;;19.83;65.08;100632.13;688055;28;1351;-78
2022/06/06 00:22:35;;;;;;;61.33;39.15;;;;;;;19.79;65.19;100636.56;685187;28;1553;-78
2022/06/06 00:22:55;;;;;;;60.97;39.13;;;;;;;19.78;65.28;100640.13;684654;28;1508;-77
2022/06/06 00:23:16;;;;;;;60.45;38.17;;;;;;;19.80;65.00;100643.63;682465;29;1174;-77
2022/06/06 00:23:38;;;;;;;56.53;36.33;;;;;;;19.86;64.90;100642.69;682196;29;1152;-78
2022/06/06 00:24:01;;;;;;;55.65;36.17;;;;;;;19.83;65.12;100640.06;679973;29;1103;-78
2022/06/06 00:24:22;;;;;;;56.05;36.13;;;;;;;19.79;65.18;100646.31;682619;29;1135;-78
2022/06/06 00:24:43;;;;;;;55.00;35.92;;;;;;;19.79;65.15;100635.72;682705;29;816;-78
2022/06/06 00:25:04;;;;;;;55.42;35.10;;;;;;;19.81;65.03;100633.91;682750;29;980;-78
2022/06/06 00:25:27;;;;;;;57.63;35.58;;;;;;;19.83;65.19;100640.94;680108;29;1249;-78
2022/06/06 00:25:48;;;;;;;59.03;35.67;;;;;;;19.78;65.27;100644.56;682785;29;895;-78
2022/06/06 00:26:12;;;;;;;57.33;35.17;;;;;;;19.72;65.28;100642.84;685225;28;1173;-77
2022/06/06 00:26:33;;;;;;;53.00;34.38;;;;;;;19.80;65.11;100642.75;685453;28;912;-78
2022/06/06 00:26:54;;;;;;;49.67;33.67;;;;;;;19.73;65.41;100636.66;680112;28;1458;-77
2022/06/06 00:27:15;;;;;;;49.08;33.60;;;;;;;19.70;65.31;100637.59;681690;28;1263;-78
2022/06/06 00:27:36;;;;;;;48.88;32.97;;;;;;;19.77;65.31;100642.78;679885;29;1982;-77
2022/06/06 00:27:57;;;;;;;49.42;33.40;;;;;;;19.76;65.24;100639.28;679961;29;1237;-78
2022/06/06 00:28:17;;;;;;;47.40;32.10;;;;;;;19.77;65.17;100632.19;680176;28;1214;-78
2022/06/06 00:28:43;;;;;;;47.10;32.72;;;;;;;19.79;65.33;100641.00;684176;28;1288;-78
2022/06/06 00:29:05;;;;;;;48.40;33.28;;;;;;;19.78;64.93;100633.97;682760;29;1145;-78
2022/06/06 00:29:27;;;;;;;47.42;32.65;;;;;;;19.83;65.20;100634.78;685017;28;1186;-78
2022/06/06 00:29:54;;;;;;;46.13;31.50;;;;;;;19.81;65.14;100639.22;684812;28;1371;-77
2022/06/06 00:30:15;;;;;;;47.42;31.40;;;;;;;19.78;65.29;100628.69;686747;28;1557;-78
2022/06/06 00:30:36;;;;;;;49.22;31.08;;;;;;;19.80;65.27;100642.75;680417;29;1066;-77
2022/06/06 00:30:57;;;;;;;52.53;30.88;;;;;;;19.78;65.30;100637.47;677390;29;1406;-78
2022/06/06 00:34:49;;;;;;;41.40;29.40;;;;;;;19.80;65.24;100627.72;684773;28;1344;-78
2022/06/06 00:35:10;;;;;;;42.58;29.95;;;;;;;19.83;65.13;100640.06;681532;28;1058;-78
2022/06/06 00:35:31;;;;;;;43.60;29.80;;;;;;;19.92;65.09;100644.41;678084;28;1333;-77
2022/06/06 00:35:56;;;;;;;41.75;28.15;;;;;;;19.89;65.00;100642.66;679321;29;1551;-77
2022/06/06 00:36:17;;;;;;;39.22;27.20;;;;;;;19.86;65.12;100634.75;683521;28;1217;-78
2022/06/06 00:36:38;;;;;;;40.97;26.85;;;;;;;19.85;65.17;100625.03;687837;28;1147;-78
2022/06/06 00:36:59;;;;;;;40.45;26.98;;;;;;;19.92;65.06;100636.47;682774;28;1514;-78
2022/06/06 00:37:31;;;;;;;37.85;25.67;;;;;;;19.85;65.05;100630.31;683930;28;1241;-78
2022/06/06 00:37:52;;;;;;;38.10;25.77;;;;;;;19.86;65.11;100630.31;682640;28;1291;-78
2022/06/06 00:38:13;;;;;;;37.83;25.70;;;;;;;19.89;64.99;100636.47;685555;28;1298;-78
2022/06/06 00:38:34;;;;;;;36.47;26.00;;;;;;;19.87;64.92;100633.84;684141;28;1533;-77
2022/06/06 00:38:54;;;;;;;39.25;26.88;;;;;;;19.94;65.02;100638.19;682636;29;1154;-77
2022/06/06 00:39:17;;;;;;;42.20;27.40;;;;;;;19.92;64.72;100626.72;680672;29;1120;-78
2022/06/06 00:39:40;;;;;;;43.17;27.00;;;;;;;19.94;64.67;100630.25;687415;28;946;-77
2022/06/06 00:40:03;;;;;;;38.63;25.83;;;;;;;19.92;64.77;100620.56;687970;28;1271;-78
2022/06/06 00:40:25;;;;;;;37.80;25.27;;;;;;;19.93;64.89;100628.50;685598;28;1107;-78
2022/06/06 00:40:49;;;;;;;36.97;24.85;;;;;;;19.94;64.72;100624.97;687915;28;1829;-78
2022/06/06 00:41:10;;;;;;;36.33;24.60;;;;;;;19.95;64.71;100637.31;682466;28;1323;-77
2022/06/06 00:41:31;;;;;;;38.30;25.50;;;;;;;20.00;64.50;100637.22;682545;29;1390;-78
2022/06/06 00:41:54;;;;;;;38.80;25.35;;;;;;;19.93;64.83;100622.31;682648;29;1151;-78
2022/06/06 00:42:26;;;;;;;39.95;25.90;;;;;;;19.93;64.73;100638.22;680537;28;1504;-78
2022/06/06 00:42:47;;;;;;;38.33;25.27;;;;;;;20.00;64.61;100648.69;685213;28;1239;-78
2022/06/06 00:43:09;;;;;;;38.83;25.58;;;;;;;19.91;64.59;100622.34;680071;28;1360;-78
2022/06/06 00:43:29;;;;;;;38.13;25.52;;;;;;;19.95;64.94;100633.75;683919;28;1364;-77
2022/06/06 00:44:09;;;;;;;37.97;25.17;;;;;;;19.96;64.55;100638.16;682667;28;1308;-78
2022/06/06 00:44:33;;;;;;;37.80;25.70;;;;;;;19.95;64.55;100628.47;685210;28;902;-78
2022/06/06 00:45:32;;;;;;;39.33;26.52;;;;;;;20.05;64.47;100659.25;685256;28;1371;-78
2022/06/06 00:45:56;;;;;;;42.05;26.92;;;;;;;19.99;64.30;100630.19;684367;28;1475;-78
2022/06/06 00:46:17;;;;;;;41.92;26.65;;;;;;;19.98;64.50;100634.59;682499;28;1226;-77
2022/06/06 00:46:55;;;;;;;41.95;26.63;;;;;;;19.98;64.44;100634.59;682541;29;1137;-78
2022/06/06 00:47:25;;;;;;;41.40;26.92;;;;;;;19.94;64.41;100632.00;684033;28;1124;-77
2022/06/06 00:48:11;;;;;;;40.20;26.85;;;;;;;20.03;64.25;100633.69;685197;28;1125;-78
2022/06/06 00:48:50;;;;;;;41.05;27.65;;;;;;;19.99;64.29;100639.00;679906;29;1276;-78
2022/06/06 00:49:22;;;;;;;43.45;28.30;;;;;;;19.99;64.27;100632.84;686313;28;1546;-78
2022/06/06 00:50:05;;;;;;;46.08;27.73;;;;;;;20.02;64.33;100643.38;684622;28;882;-78
2022/06/06 00:50:51;;;;;;;43.67;28.50;;;;;;;19.99;64.11;100631.06;687448;28;1194;-78
2022/06/06 00:51:15;;;;;;;47.22;28.83;;;;;;;19.98;64.14;100631.94;685012;28;1398;-77
2022/06/06 00:51:36;;;;;;;47.20;28.77;;;;;;;20.05;64.21;100650.41;687173;28;1662;-78
2022/06/06 00:51:57;;;;;;;45.63;29.20;;;;;;;20.02;64.14;100645.16;685266;28;1181;-78
2022/06/06 00:52:32;;;;;;;42.90;28.75;;;;;;;20.07;64.18;100654.81;686147;28;1419;-78
2022/06/06 00:52:55;;;;;;;45.05;29.30;;;;;;;20.10;63.98;100645.94;682170;29;1327;-78
2022/06/06 00:53:20;;;;;;;46.85;29.30;;;;;;;20.08;63.98;100672.44;685827;28;1472;-78
2022/06/06 00:53:51;;;;;;;47.28;30.10;;;;;;;20.04;63.91;100657.47;685280;28;1311;-78
2022/06/06 00:54:12;;;;;;;46.38;30.55;;;;;;;20.12;63.50;100650.28;685155;28;1091;-78
2022/06/06 00:54:33;;;;;;;48.97;30.90;;;;;;;20.06;63.67;100639.81;685316;28;1041;-78
2022/06/06 00:54:58;;;;;;;49.60;31.00;;;;;;;19.96;63.90;100638.16;682489;28;1299;-78
2022/06/06 00:55:24;;;;;;;52.03;31.90;;;;;;;20.04;63.70;100635.44;683707;28;1348;-78
2022/06/06 00:55:51;;;;;;;50.63;32.40;;;;;;;20.09;63.89;100654.75;682685;29;1030;-77
2022/06/06 00:56:20;;;;;;;52.97;32.17;;;;;;;19.97;63.90;100642.56;680506;28;1360;-78
2022/06/06 00:56:47;;;;;;;55.10;31.95;;;;;;;19.98;63.76;100658.44;678550;29;1414;-78
2022/06/06 00:57:14;;;;;;;55.10;32.13;;;;;;;19.93;63.75;100662.94;680031;29;1018;-78
2022/06/06 00:57:41;;;;;;;54.42;32.45;;;;;;;19.94;63.94;100639.97;685257;28;1523;-78
2022/06/06 00:58:07;;;;;;;57.35;33.47;;;;;;;19.91;63.80;100643.53;685052;28;1264;-78
2022/06/06 00:58:30;;;;;;;61.05;35.22;;;;;;;19.85;63.81;100638.25;685047;28;1355;-78
2022/06/06 00:58:54;;;;;;;61.42;36.22;;;;;;;19.83;63.60;100643.59;687917;28;803;-78
2022/06/06 00:59:19;;;;;;;63.58;36.92;;;;;;;19.85;63.82;100635.63;685108;28;1375;-78
2022/06/06 00:59:42;;;;;;;61.25;35.83;;;;;;;19.89;63.59;100650.63;681894;28;886;-77
2022/06/06 01:00:13;;;;;;;64.18;36.00;;;;;;;19.87;63.56;100655.03;679884;28;1161;-78
2022/06/06 01:00:39;;;;;;;60.58;35.40;;;;;;;19.84;63.57;100670.94;679912;28;1332;-78
2022/06/06 01:01:01;;;;;;;60.40;34.95;;;;;;;19.84;63.42;100655.06;676531;29;934;-78
2022/06/06 01:01:24;;;;;;;64.15;36.00;;;;;;;19.85;63.61;100651.50;684718;28;1429;-77
2022/06/06 01:01:46;;;;;;;66.47;36.53;;;;;;;19.78;63.66;100656.00;685411;28;775;-78
2022/06/06 01:02:10;;;;;;;67.30;36.88;;;;;;;19.72;63.58;100646.38;685157;28;1092;-79
2022/06/06 01:02:30;;;;;;;66.00;37.17;;;;;;;19.78;63.52;100649.84;687266;28;1400;-78
2022/06/06 01:02:56;;;;;;;64.70;38.00;;;;;;;19.71;63.83;100660.50;687945;28;1130;-78
2022/06/06 01:03:20;;;;;;;67.07;38.67;;;;;;;19.76;63.82;100656.91;682681;28;1156;-78
2022/06/06 01:03:41;;;;;;;67.32;37.72;;;;;;;19.72;63.54;100672.84;682169;29;1502;-78
2022/06/06 01:04:04;;;;;;;66.45;38.15;;;;;;;19.68;63.80;100671.13;682204;29;1681;-78
2022/06/06 01:04:27;;;;;;;64.72;38.53;;;;;;;19.67;63.48;100648.19;682295;29;1300;-77
2022/06/06 01:04:48;;;;;;;67.40;38.85;;;;;;;19.70;63.48;100658.75;682446;28;1431;-78
2022/06/06 01:05:09;;;;;;;66.70;38.40;;;;;;;19.65;63.46;100652.63;685222;28;1229;-77
2022/06/06 01:05:31;;;;;;;67.95;38.45;;;;;;;19.71;63.60;100670.22;685193;28;1234;-78
2022/06/06 01:05:53;;;;;;;66.82;38.75;;;;;;;19.60;63.58;100667.69;684404;28;1753;-78
2022/06/06 01:06:18;;;;;;;69.70;39.20;;;;;;;19.63;63.53;100665.03;683773;28;1274;-77
2022/06/06 01:06:41;;;;;;;70.93;39.40;;;;;;;19.63;63.57;100680.91;690494;28;1454;-78
2022/06/06 01:07:08;;;;;;;71.18;39.63;;;;;;;19.55;63.46;100648.34;687832;28;1021;-78
2022/06/06 01:07:29;;;;;;;73.22;41.08;;;;;;;19.51;63.62;100673.97;682111;29;1911;-78
2022/06/06 01:07:50;;;;;;;73.18;41.35;;;;;;;19.50;63.59;100679.28;679972;29;1219;-78
2022/06/06 01:08:11;;;;;;;72.63;42.13;;;;;;;19.40;63.58;100662.63;679403;29;1309;-78
2022/06/06 01:08:36;;;;;;;72.25;41.50;;;;;;;19.47;63.59;100677.53;684464;28;1221;-78
2022/06/06 01:08:58;;;;;;;72.13;41.30;;;;;;;19.42;63.76;100672.28;685185;28;1454;-78
2022/06/06 01:09:22;;;;;;;72.72;42.38;;;;;;;19.33;63.80;100659.16;682969;28;1466;-78
2022/06/06 01:09:43;;;;;;;74.20;43.50;;;;;;;19.27;63.82;100669.81;679363;28;1134;-78
2022/06/06 01:10:06;;;;;;;75.05;43.38;;;;;;;19.29;64.04;100674.19;682571;29;1067;-78
2022/06/06 01:10:26;;;;;;;73.60;43.30;;;;;;;19.29;63.97;100658.31;681887;29;1124;-78
2022/06/06 01:10:47;;;;;;;76.10;43.20;;;;;;;19.25;64.06;100666.31;685250;28;1354;-78
2022/06/06 01:11:08;;;;;;;78.82;42.50;;;;;;;19.26;64.36;100673.34;683219;28;1221;-78
2022/06/06 01:11:33;;;;;;;77.57;41.15;;;;;;;19.23;64.27;100670.75;682501;28;1294;-78
2022/06/06 01:12:01;;;;;;;76.45;41.45;;;;;;;19.17;64.46;100667.25;682406;28;1720;-79
2022/06/06 01:12:22;;;;;;;81.43;43.30;;;;;;;19.15;64.55;100676.09;684978;28;1686;-77
2022/06/06 01:12:47;;;;;;;81.03;43.55;;;;;;;19.07;64.63;100672.63;682551;29;887;-78
2022/06/06 01:13:10;;;;;;;89.18;45.35;;;;;;;19.11;64.79;100690.25;685184;28;1119;-78
2022/06/06 01:13:33;;;;;;;91.80;47.75;;;;;;;19.08;64.96;100696.44;682411;29;984;-78
2022/06/06 01:13:56;;;;;;;91.32;47.72;;;;;;;19.09;64.93;100682.31;680033;29;734;-78
2022/06/06 01:14:21;;;;;;;89.00;46.15;;;;;;;19.13;64.83;100694.59;681980;28;1147;-79
2022/06/06 01:15:02;;;;;;;93.95;47.45;;;;;;;19.15;64.88;100684.91;679977;29;1247;-78
2022/06/06 01:15:26;;;;;;;97.90;50.13;;;;;;;19.09;64.74;100674.38;684662;28;1923;-78
2022/06/06 01:16:10;;;;;;;96.30;50.40;;;;;;;19.04;64.83;100678.81;682456;29;1379;-78
2022/06/06 01:16:46;;;;;;;96.47;50.22;;;;;;;19.02;65.00;100680.59;682772;28;1279;-78
2022/06/06 01:17:28;;;;;;;105.75;52.25;;;;;;;18.93;65.40;100694.75;685150;28;1079;-78
2022/06/06 01:18:06;;;;;;;105.63;52.83;;;;;;;18.95;65.33;100690.34;683060;28;1271;-78
2022/06/06 01:19:01;;;;;;;102.55;52.83;;;;;;;18.99;65.30;100685.91;683016;28;1356;-78
2022/06/06 01:19:31;;;;;;;116.43;56.17;;;;;;;18.98;65.37;100690.31;683819;28;1128;-78
2022/06/06 01:20:21;;;;;;;115.28;57.88;;;;;;;19.00;65.23;100698.25;687763;28;1141;-78
2022/06/06 01:21:00;;;;;;;115.97;59.85;;;;;;;18.96;65.27;100694.75;684793;28;1361;-78
2022/06/06 01:21:38;;;;;;;116.25;59.20;;;;;;;18.94;65.25;100687.69;683587;28;1217;-77
2022/06/06 01:22:36;;;;;;;114.03;57.83;;;;;;;18.94;65.28;100698.28;679775;29;1276;-78
2022/06/06 01:23:11;;;;;;;113.90;58.65;;;;;;;18.91;65.06;100678.91;679791;29;1372;-77
2022/06/06 01:24:05;;;;;;;111.53;56.17;;;;;;;18.97;65.14;100692.97;684774;28;1672;-78
2022/06/06 01:24:35;;;;;;;100.35;53.00;;;;;;;18.91;65.13;100701.81;681772;28;1251;-77
2022/06/06 01:25:13;;;;;;;99.38;50.60;;;;;;;18.95;65.08;100702.69;682491;28;1239;-77
2022/06/06 01:25:52;;;;;;;97.47;51.00;;;;;;;18.87;65.11;100693.03;688111;28;1474;-78
2022/06/06 01:26:31;;;;;;;99.43;52.45;;;;;;;18.90;65.14;100702.72;684273;28;2108;-78
2022/06/06 01:27:00;;;;;;;99.75;51.08;;;;;;;18.82;65.18;100700.16;682647;29;883;-78
2022/06/06 01:27:49;;;;;;;95.03;50.83;;;;;;;18.90;64.94;100698.31;683847;28;1111;-77
2022/06/06 01:28:20;;;;;;;102.68;52.63;;;;;;;18.91;64.74;100701.81;687978;28;1332;-78
2022/06/06 01:28:59;;;;;;;104.75;52.78;;;;;;;18.94;64.68;100714.16;684574;28;1283;-78
2022/06/06 01:29:34;;;;;;;103.57;53.55;;;;;;;18.89;64.49;100695.69;683572;28;1133;-78
2022/06/06 01:30:01;;;;;;;104.47;53.25;;;;;;;18.82;64.66;100686.94;682269;29;827;-78
2022/06/06 01:30:28;;;;;;;108.53;53.88;;;;;;;18.78;64.66;100677.25;683602;28;1418;-79
2022/06/06 01:30:54;;;;;;;106.18;53.58;;;;;;;18.78;64.73;100690.47;679942;29;1224;-78
2022/06/06 01:31:32;;;;;;;98.80;53.15;;;;;;;18.77;64.83;100686.94;679339;29;1480;-78
2022/06/06 01:32:05;;;;;;;96.53;51.85;;;;;;;18.76;64.76;100692.25;682540;29;1090;-78
2022/06/06 01:32:29;;;;;;;98.25;51.72;;;;;;;18.81;64.78;100692.22;684941;28;1327;-78
2022/06/06 01:32:54;;;;;;;102.88;51.75;;;;;;;18.76;64.74;100694.91;685188;28;1281;-78
2022/06/06 01:33:15;;;;;;;107.15;53.67;;;;;;;18.84;64.71;100716.88;685770;28;1257;-78
2022/06/06 01:33:58;;;;;;;111.40;54.87;;;;;;;18.79;64.83;100694.88;683206;28;1620;-78
2022/06/06 01:34:28;;;;;;;109.97;53.95;;;;;;;18.77;64.70;100696.66;683636;28;1374;-78
2022/06/06 01:34:52;;;;;;;103.72;52.67;;;;;;;18.81;64.67;100701.00;682095;29;1518;-78
2022/06/06 01:35:23;;;;;;;99.07;51.67;;;;;;;18.77;64.49;100709.88;682305;28;1314;-77
2022/06/06 01:35:47;;;;;;;103.75;52.58;;;;;;;18.71;64.73;100694.03;685031;28;1081;-77
2022/06/06 01:36:07;;;;;;;104.95;53.55;;;;;;;18.76;64.61;100690.47;682463;29;1232;-78
2022/06/06 01:36:31;;;;;;;107.93;53.75;;;;;;;18.74;64.70;100694.91;682260;29;1173;-78
2022/06/06 01:36:55;;;;;;;106.50;52.40;;;;;;;18.72;64.73;100694.03;677755;29;1177;-77
2022/06/06 01:37:30;;;;;;;109.47;53.60;;;;;;;18.71;64.79;100691.41;679686;29;1228;-77
2022/06/06 01:37:51;;;;;;;110.95;55.25;;;;;;;18.66;64.95;100687.91;679925;29;812;-78
2022/06/06 01:38:15;;;;;;;109.53;54.88;;;;;;;18.70;64.90;100692.28;680136;28;1131;-78
2022/06/06 01:38:37;;;;;;;111.97;54.13;;;;;;;18.70;64.96;100700.22;679414;28;1284;-78
2022/06/06 01:39:11;;;;;;;110.55;53.55;;;;;;;18.74;64.63;100699.28;682809;28;1364;-78
2022/06/06 01:39:32;;;;;;;105.60;52.03;;;;;;;18.73;64.64;100698.44;681777;29;1330;-77
2022/06/06 01:39:55;;;;;;;102.20;52.30;;;;;;;18.67;64.62;100700.25;684934;28;1385;-78
2022/06/06 01:40:17;;;;;;;100.60;52.72;;;;;;;18.68;64.76;100696.72;680564;28;1227;-78
2022/06/06 01:40:56;;;;;;;95.78;51.47;;;;;;;18.69;64.50;100694.03;682595;28;993;-79
2022/06/06 01:41:57;;;;;;;103.22;51.70;;;;;;;18.76;64.52;100706.31;684932;28;1214;-79
2022/06/06 01:42:34;;;;;;;103.13;52.58;;;;;;;18.82;64.33;100709.81;680590;28;1232;-78
2022/06/06 01:43:00;;;;;;;98.00;51.70;;;;;;;18.73;64.47;100700.19;679534;29;1595;-77
2022/06/06 01:43:28;;;;;;;102.15;51.95;;;;;;;18.83;64.11;100712.47;682860;28;1213;-79
2022/06/06 01:43:57;;;;;;;103.72;53.03;;;;;;;18.76;64.18;100689.63;685180;28;776;-78
2022/06/06 01:44:20;;;;;;;99.40;53.47;;;;;;;18.70;64.45;100695.81;682403;28;1114;-77
2022/06/06 01:44:47;;;;;;;98.50;53.15;;;;;;;18.69;64.50;100698.47;687826;28;836;-78
2022/06/06 01:45:25;;;;;;;98.10;51.67;;;;;;;18.70;64.34;100697.56;678675;28;1028;-78
2022/06/06 01:45:56;;;;;;;96.68;51.20;;;;;;;18.73;64.33;100694.91;679973;29;851;-78
2022/06/06 01:46:22;;;;;;;98.50;52.90;;;;;;;18.66;64.35;100703.75;683310;28;1146;-78
2022/06/06 01:46:42;;;;;;;102.00;53.92;;;;;;;18.63;64.30;100700.25;686863;28;1130;-77
2022/06/06 01:47:07;;;;;;;102.03;54.67;;;;;;;18.61;64.27;100691.47;683183;28;893;-78
2022/06/06 01:47:37;;;;;;;96.63;52.33;;;;;;;18.71;64.37;100704.63;685002;28;1972;-78
2022/06/06 01:48:09;;;;;;;96.82;51.20;;;;;;;18.70;64.18;100714.31;682625;28;890;-78
2022/06/06 01:48:35;;;;;;;94.75;50.88;;;;;;;18.71;64.18;100700.22;685114;28;1082;-77
2022/06/06 01:48:57;;;;;;;96.50;51.03;;;;;;;18.72;64.33;100704.63;679887;28;1235;-78
2022/06/06 01:49:19;;;;;;;97.40;51.00;;;;;;;18.67;64.12;100705.53;680749;29;1315;-77
2022/06/06 01:49:41;;;;;;;93.63;50.65;;;;;;;18.71;64.27;100712.53;681917;29;997;-78
2022/06/06 01:50:04;;;;;;;96.57;51.22;;;;;;;18.69;64.14;100699.34;679559;28;1212;-77
2022/06/06 01:50:25;;;;;;;97.35;51.28;;;;;;;18.66;64.12;100703.75;679008;29;1367;-77
2022/06/06 01:50:46;;;;;;;96.03;52.08;;;;;;;18.66;64.08;100714.31;679950;29;831;-77
2022/06/06 01:51:12;;;;;;;95.33;50.97;;;;;;;18.73;63.98;100700.19;681984;29;1254;-77
2022/06/06 01:51:33;;;;;;;92.25;49.78;;;;;;;18.74;63.86;100717.81;679784;29;1336;-79
2022/06/06 01:52:03;;;;;;;95.70;49.20;;;;;;;18.67;64.09;100705.53;682475;29;1368;-78
2022/06/06 01:52:24;;;;;;;91.43;48.97;;;;;;;18.74;64.10;100717.81;681427;28;1388;-78
2022/06/06 01:52:50;;;;;;;87.65;48.72;;;;;;;18.74;64.13;100717.81;682408;28;1224;-78
2022/06/06 01:53:17;;;;;;;83.00;47.17;;;;;;;18.72;64.10;100706.38;682258;28;1119;-78
2022/06/06 01:53:39;;;;;;;86.32;45.97;;;;;;;18.71;64.01;100705.50;684251;28;1125;-78
2022/06/06 01:54:00;;;;;;;93.72;47.95;;;;;;;18.69;63.92;100714.31;685249;28;870;-78
2022/06/06 01:54:21;;;;;;;92.77;48.50;;;;;;;18.63;64.08;100716.13;683810;28;1257;-79
2022/06/06 01:54:42;;;;;;;92.47;49.10;;;;;;;18.70;64.07;100714.31;684949;28;1331;-78
2022/06/06 01:55:04;;;;;;;89.60;47.92;;;;;;;18.63;63.95;100708.19;684976;28;1297;-79
2022/06/06 01:55:28;;;;;;;92.55;48.75;;;;;;;18.68;64.00;100717.88;682392;28;1163;-78
2022/06/06 01:55:51;;;;;;;94.53;48.72;;;;;;;18.68;64.05;100721.38;679883;29;943;-78
2022/06/06 01:56:15;;;;;;;92.38;49.05;;;;;;;18.64;63.82;100707.28;680031;28;1347;-78
2022/06/06 01:56:40;;;;;;;88.30;47.83;;;;;;;18.71;63.80;100712.53;684682;28;1433;-78
2022/06/06 01:57:03;;;;;;;87.15;48.13;;;;;;;18.68;63.82;100704.66;684957;28;1114;-78
2022/06/06 01:57:25;;;;;;;86.22;48.38;;;;;;;18.63;63.71;100702.91;682417;29;1125;-78
2022/06/06 01:57:47;;;;;;;86.00;47.28;;;;;;;18.66;63.72;100709.03;681831;29;1329;-78
2022/06/06 01:58:16;;;;;;;84.07;47.03;;;;;;;18.71;63.42;100708.16;681588;28;1160;-78
2022/06/06 01:58:37;;;;;;;81.72;47.25;;;;;;;18.69;63.56;100701.97;681569;28;1601;-78
2022/06/06 01:58:58;;;;;;;84.25;47.50;;;;;;;18.66;63.39;100724.91;679906;29;844;-78
2022/06/06 01:59:18;;;;;;;90.38;49.10;;;;;;;18.70;63.53;100708.16;680929;28;1116;-77
2022/06/06 01:59:40;;;;;;;90.77;48.50;;;;;;;18.68;63.36;100708.16;681739;28;1275;-78
2022/06/06 02:00:01;;;;;;;89.45;48.20;;;;;;;18.71;63.26;100704.63;677237;29;1163;-78
2022/06/06 02:00:22;;;;;;;88.43;47.88;;;;;;;18.71;63.37;100707.25;682845;28;1283;-78
2022/06/06 02:00:43;;;;;;;86.47;47.17;;;;;;;18.60;63.41;100700.28;680449;28;1594;-78
2022/06/06 02:01:04;;;;;;;85.57;46.58;;;;;;;18.67;63.37;100726.69;682443;28;1285;-78
2022/06/06 02:01:25;;;;;;;85.70;46.95;;;;;;;18.67;63.55;100713.47;685100;28;1316;-77
2022/06/06 02:01:46;;;;;;;85.18;46.10;;;;;;;18.64;63.47;100717.00;680307;29;1059;-78
2022/06/06 02:02:07;;;;;;;83.20;44.30;;;;;;;18.63;63.58;100715.25;679842;29;1043;-77
2022/06/06 02:02:28;;;;;;;83.10;43.75;;;;;;;18.70;63.44;100719.63;681043;29;1545;-77